Weather at Auckland International Airport

Public forecast

Using degrees Celsius for public forecast. Weather courtesy of forecast.io.

Current aviation weather report (METAR) for Auckland International Airport

Retrieved 2021/03/08 17:30 UTC (32 minutes ago):

NZAA 081730Z AUTO 25010KT 9999 SCT042/// OVC050/// 17/12 Q1017 NOSIG

Aviation forecast (TAF) for Auckland International Airport

Retrieved 2021/03/08 12:15 UTC (6 hours ago):

TAF NZAA 081108Z 0812/0912 22010KT 9999 BKN030 BECMG 0910/0912 28005KT